Flight Track Log - Related Links

Times and Time Zones

All times are in EST time to prevent confusion due to time zone crossing. See the PDT4207 flight status page for this flight to view local times or setup timezone preferences in your user account.

Time Position Orientation Groundspeed Altitude Reporting Facility
EST Latitude Longitude Course Direction KTS MPH feet Rate Location/Type
Tue 21:41:46 39.8833 -75.2167 349° North 113 130 500  Level Philadelphia TRACON
Tue 21:42:58 39.9167 -75.1667 49° Northeast 157 181 2,100 1,323 Climbing Philadelphia TRACON
Tue 21:43:53 39.9500 -75.1333 37° Northeast 151 174 3,300 991 Climbing Philadelphia TRACON
Tue 21:44:00 40.1098 -75.3136 348° North  Level Estimated
Tue 21:44:53 39.9833 -75.1500 339° North 173 199 4,000  Level Philadelphia TRACON
Tue 21:45:00 40.1901 -75.3300 351° North  Level FlightAware Approximate
Tue 21:45:47 40.0333 -75.1667 346° North 211 243 4,000  Level Philadelphia TRACON
Tue 21:46:00 40.2705 -75.3464 351° North  Level FlightAware Approximate
Tue 21:46:47 40.1000 -75.2000 339° North 222 255 4,000  Level Philadelphia TRACON
Tue 21:47:00 40.3495 -75.3715 349° North  Level Estimated
Tue 21:47:47 40.1500 -75.2333 333° Northwest 227 261 4,000  Level Philadelphia TRACON
Tue 21:49:00 40.2425 -75.2794 339° North  Level FlightAware Approximate
Tue 21:56:00 40.7965 -75.4500 North  Level FlightAware Approximate
Tue 21:57:00 40.8778 -75.4500 North  Level FlightAware Approximate
Tue 21:58:00 40.9592 -75.4500 North  Level FlightAware Approximate
Tue 21:59:00 41.0405 -75.4505 357° North  Level FlightAware Approximate
Tue 22:00:00 41.1217 -75.4568 357° North  Level FlightAware Approximate
Tue 22:01:00 41.2029 -75.4630 357° North  Level FlightAware Approximate
Tue 22:02:00 41.2841 -75.4667 North  Level FlightAware Approximate
Tue 22:03:00 41.3654 -75.4667 North  Level FlightAware Approximate
Tue 22:04:00 41.4468 -75.4667 North  Level FlightAware Approximate
Tue 22:05:00 41.5159 -75.5157 323° Northwest  Level FlightAware Approximate
Tue 22:06:00 41.5810 -75.5808 323° Northwest  Level FlightAware Approximate
Tue 22:07:00 41.6461 -75.6459 323° Northwest  Level FlightAware Approximate
Tue 22:08:00 41.7112 -75.7112 323° Northwest  Level FlightAware Approximate
Tue 22:09:00 41.7777 -75.7739 325° Northwest  Level FlightAware Approximate
Tue 22:10:00 41.8444 -75.8365 325° Northwest  Level FlightAware Approximate
Tue 22:11:00 41.9109 -75.8992 325° Northwest  Level FlightAware Approximate
Tue 22:12:00 41.9775 -75.9621 325° Northwest  Level FlightAware Approximate
Tue 22:13:00 42.0432 -76.0265 323° Northwest  Level FlightAware Approximate
Tue 22:14:00 42.1085 -76.0918 323° Northwest  Level FlightAware Approximate
Tue 22:15:00 42.1540 -76.0960 37° Northeast  Level FlightAware Approximate
Tue 22:16:00 42.1978 -76.0055 62° Northeast  Level FlightAware Approximate
Tue 22:17:00 42.2000 -75.9667 90° East  Level FlightAware Approximate
Tue 22:18:00 42.2084 -75.9796 90° East  Level Estimated
Tue 22:19:00 42.2084 -75.9796 90° East  Level Estimated
Tue 22:20:00 42.2084 -75.9796 90° East  Level Estimated
Tue 22:21:00 42.2084 -75.9796 90° East  Level Estimated
Tue 22:22:00 42.2084 -75.9796 90° East  Level Estimated
Tue 22:23:00 42.2084 -75.9796 90° East  Level Estimated
Tue 22:24:00 42.2084 -75.9796 90° East  Level Estimated
Tue 22:25:00 42.2084 -75.9796 90° East  Level Estimated

Login

Don't have an account? Register now (free) for customized features, flight alerts, and more!